createdAt,value
2023-11-14T00:01:25.549Z,10.74
2023-11-14T00:03:52.398Z,10.72
2023-11-14T00:06:19.156Z,10.70
2023-11-14T00:08:46.494Z,10.71
2023-11-14T00:11:13.143Z,10.68
2023-11-14T00:13:39.770Z,10.64
2023-11-14T00:16:06.976Z,10.66
2023-11-14T00:18:33.598Z,10.67
2023-11-14T00:21:00.236Z,10.65
2023-11-14T00:23:26.853Z,10.67
2023-11-14T00:25:53.399Z,10.68
2023-11-14T00:28:19.913Z,10.67
2023-11-14T00:30:46.547Z,10.70
2023-11-14T00:33:13.209Z,10.55
2023-11-14T00:35:39.846Z,10.67
2023-11-14T00:38:06.555Z,10.68
2023-11-14T00:40:33.134Z,10.71
2023-11-14T00:42:59.810Z,10.72
2023-11-14T00:45:28.310Z,10.75
2023-11-14T00:47:55.638Z,10.73
2023-11-14T00:50:22.214Z,10.71
2023-11-14T00:52:48.776Z,10.70
2023-11-14T00:55:15.373Z,10.68
2023-11-14T00:57:42.477Z,10.52
2023-11-14T01:00:11.387Z,10.71
2023-11-14T01:02:38.362Z,10.69
2023-11-14T01:05:05.406Z,10.70
2023-11-14T01:07:32.263Z,10.69
2023-11-14T01:09:58.833Z,10.57
2023-11-14T01:12:26.933Z,10.67
2023-11-14T01:14:53.758Z,10.63
2023-11-14T01:17:21.699Z,10.61
2023-11-14T01:19:51.228Z,10.50
2023-11-14T01:22:18.958Z,10.58
2023-11-14T01:24:45.715Z,10.58
2023-11-14T01:27:12.427Z,10.33
2023-11-14T01:29:39.394Z,10.59
2023-11-14T01:32:07.657Z,10.58
2023-11-14T01:34:36.227Z,10.57
2023-11-14T01:37:03.159Z,10.57
2023-11-14T01:39:30.719Z,10.55
2023-11-14T01:41:57.487Z,10.50
2023-11-14T01:44:24.231Z,10.32
2023-11-14T01:46:51.237Z,10.45
2023-11-14T01:49:18.053Z,10.41
2023-11-14T01:51:45.980Z,10.41
2023-11-14T01:54:13.096Z,10.41
2023-11-14T01:56:42.441Z,10.42
2023-11-14T01:59:09.767Z,10.46
2023-11-14T02:01:36.883Z,10.44
2023-11-14T02:04:11.617Z,10.44
2023-11-14T02:06:38.612Z,10.43
2023-11-14T02:09:08.673Z,10.48
2023-11-14T02:11:35.824Z,10.47
2023-11-14T02:14:02.702Z,10.38
2023-11-14T02:16:46.148Z,10.49
2023-11-14T02:19:13.486Z,10.38
2023-11-14T02:21:40.117Z,10.45
2023-11-14T02:24:12.594Z,10.47
2023-11-14T02:26:39.274Z,10.41
2023-11-14T02:29:05.867Z,10.42
2023-11-14T02:31:32.575Z,10.43
2023-11-14T02:33:59.150Z,10.44
2023-11-14T02:36:29.832Z,10.42
2023-11-14T02:38:56.248Z,10.42
2023-11-14T02:41:22.772Z,10.43
2023-11-14T02:43:49.637Z,10.44
2023-11-14T02:46:16.194Z,10.45
2023-11-14T02:48:42.914Z,10.46
2023-11-14T02:51:09.606Z,10.45
2023-11-14T02:53:36.179Z,10.53
2023-11-14T02:56:02.931Z,10.54
2023-11-14T02:58:29.583Z,10.55
2023-11-14T03:00:56.258Z,10.52
2023-11-14T03:03:22.971Z,10.55
2023-11-14T03:05:49.701Z,10.56
2023-11-14T03:08:16.522Z,10.55
2023-11-14T03:10:44.638Z,10.54
2023-11-14T03:13:11.830Z,10.48
2023-11-14T03:15:38.721Z,10.48
2023-11-14T03:18:05.584Z,10.41
2023-11-14T03:20:34.881Z,10.50
2023-11-14T03:23:03.159Z,10.46
2023-11-14T03:25:29.885Z,10.41
2023-11-14T03:27:58.860Z,10.48
2023-11-14T03:30:25.498Z,10.47
2023-11-14T03:32:52.229Z,10.30
2023-11-14T03:35:18.844Z,10.41
2023-11-14T03:37:45.820Z,10.43
2023-11-14T03:40:13.118Z,10.46
2023-11-14T03:42:39.709Z,10.47
2023-11-14T03:45:07.117Z,10.43
2023-11-14T03:47:33.786Z,10.42
2023-11-14T03:50:00.436Z,10.46
2023-11-14T03:52:27.130Z,10.50
2023-11-14T03:54:53.870Z,10.48
2023-11-14T03:57:22.532Z,10.51
2023-11-14T03:59:49.361Z,10.50
2023-11-14T04:02:15.918Z,10.50
2023-11-14T04:04:44.042Z,10.49
2023-11-14T04:07:10.924Z,10.53
2023-11-14T04:09:41.248Z,10.56
2023-11-14T04:12:08.199Z,10.59
2023-11-14T04:14:34.725Z,10.60
2023-11-14T04:17:01.400Z,10.58
2023-11-14T04:19:27.994Z,10.63
2023-11-14T04:21:54.482Z,10.50
2023-11-14T04:24:20.976Z,10.68
2023-11-14T04:26:48.191Z,10.69
2023-11-14T04:29:14.828Z,10.68
2023-11-14T04:31:41.655Z,10.71
2023-11-14T04:34:09.136Z,10.72
2023-11-14T04:36:35.805Z,10.62
2023-11-14T04:39:02.816Z,10.79
2023-11-14T04:41:29.296Z,10.77
2023-11-14T04:43:55.899Z,10.76
2023-11-14T04:46:22.581Z,10.81
2023-11-14T04:48:49.151Z,10.71
2023-11-14T04:51:15.775Z,10.77
2023-11-14T04:53:42.270Z,10.78
2023-11-14T04:56:08.937Z,10.82
2023-11-14T04:58:37.147Z,10.87
2023-11-14T05:01:04.117Z,10.78
2023-11-14T05:03:31.438Z,10.91
2023-11-14T05:05:59.871Z,10.96
2023-11-14T05:08:26.381Z,11.00
2023-11-14T05:10:52.903Z,11.01
2023-11-14T05:13:19.509Z,11.00
2023-11-14T05:15:46.143Z,11.02
2023-11-14T05:18:12.679Z,11.00
2023-11-14T05:20:40.438Z,11.00
2023-11-14T05:23:07.814Z,10.84
2023-11-14T05:25:37.195Z,10.98
2023-11-14T05:28:03.867Z,10.97
2023-11-14T05:30:30.459Z,11.01
2023-11-14T05:32:56.981Z,10.97
2023-11-14T05:35:23.642Z,10.94
2023-11-14T05:37:50.201Z,10.95
2023-11-14T05:40:16.887Z,10.95
2023-11-14T05:42:43.451Z,11.01
2023-11-14T05:45:11.093Z,11.02
2023-11-14T05:47:37.654Z,11.01
2023-11-14T05:50:07.815Z,10.83
2023-11-14T05:52:35.206Z,10.99
2023-11-14T05:55:02.244Z,10.97
2023-11-14T05:57:29.071Z,10.95
2023-11-14T05:59:57.022Z,11.02
2023-11-14T06:02:24.208Z,10.98
2023-11-14T06:04:51.048Z,10.99
2023-11-14T06:07:18.931Z,10.96
2023-11-14T06:09:45.550Z,10.96
2023-11-14T06:12:12.156Z,10.95
2023-11-14T06:14:38.953Z,10.96
2023-11-14T06:17:05.448Z,10.94
2023-11-14T06:19:32.291Z,10.95
2023-11-14T06:21:58.858Z,10.59
2023-11-14T06:24:25.359Z,10.91
2023-11-14T06:26:51.921Z,10.87
2023-11-14T06:29:18.841Z,10.86
2023-11-14T06:31:46.652Z,10.86
2023-11-14T06:34:14.355Z,10.87
2023-11-14T06:36:40.957Z,10.83
2023-11-14T06:39:07.516Z,10.48
2023-11-14T06:41:34.088Z,10.81
2023-11-14T06:44:00.660Z,10.80
2023-11-14T06:46:27.379Z,10.78
2023-11-14T06:48:53.917Z,10.76
2023-11-14T06:51:20.612Z,10.63
2023-11-14T06:53:50.334Z,10.69
2023-11-14T06:56:16.910Z,10.78
2023-11-14T06:58:43.559Z,10.81
2023-11-14T07:01:13.508Z,10.84
2023-11-14T07:03:40.699Z,10.87
2023-11-14T07:06:07.425Z,10.90
2023-11-14T07:08:34.014Z,10.71
2023-11-14T07:11:00.604Z,10.89
2023-11-14T07:13:27.248Z,10.90
2023-11-14T07:15:53.888Z,10.90
2023-11-14T07:18:20.669Z,10.94
2023-11-14T07:20:49.890Z,10.96
2023-11-14T07:23:16.984Z,10.95
2023-11-14T07:25:46.232Z,10.95
2023-11-14T07:28:13.472Z,10.94
2023-11-14T07:30:40.689Z,10.89
2023-11-14T07:33:07.827Z,10.99
2023-11-14T07:35:38.360Z,10.99
2023-11-14T07:38:06.192Z,11.02
2023-11-14T07:40:33.581Z,11.00
2023-11-14T07:43:04.606Z,10.79
2023-11-14T07:45:31.190Z,10.91
2023-11-14T07:47:57.902Z,11.07
2023-11-14T07:50:24.834Z,11.15
2023-11-14T07:52:52.152Z,11.18
2023-11-14T07:55:19.159Z,11.22
2023-11-14T07:57:45.733Z,11.17
2023-11-14T08:00:15.032Z,11.30
2023-11-14T08:02:42.486Z,11.33
2023-11-14T08:05:09.967Z,11.31
2023-11-14T08:07:36.741Z,11.33
2023-11-14T08:10:03.485Z,11.39
2023-11-14T08:12:30.121Z,11.42
2023-11-14T08:14:56.745Z,11.42
2023-11-14T08:17:23.456Z,11.37
2023-11-14T08:19:51.188Z,11.52
2023-11-14T08:22:17.971Z,11.47
2023-11-14T08:24:44.643Z,11.49
2023-11-14T08:27:11.622Z,11.50
2023-11-14T08:29:39.921Z,11.52
2023-11-14T08:32:07.331Z,11.53
2023-11-14T08:34:34.806Z,11.51
2023-11-14T08:37:01.448Z,11.51
2023-11-14T08:39:30.152Z,11.51
2023-11-14T08:41:57.228Z,11.55
2023-11-14T08:44:24.923Z,11.56
2023-11-14T08:46:51.731Z,11.58
2023-11-14T08:49:18.846Z,11.65
2023-11-14T08:51:45.517Z,11.68
2023-11-14T08:54:12.526Z,11.63
2023-11-14T08:56:39.166Z,11.61
2023-11-14T08:59:05.969Z,11.61
2023-11-14T09:01:32.603Z,11.60
2023-11-14T09:03:59.223Z,11.61
2023-11-14T09:06:25.761Z,11.53
2023-11-14T09:08:53.284Z,11.68
2023-11-14T09:11:21.057Z,11.58
2023-11-14T09:13:49.150Z,11.60
2023-11-14T09:16:16.838Z,11.47
2023-11-14T09:18:43.679Z,11.64
2023-11-14T09:21:10.443Z,11.71
2023-11-14T09:23:37.448Z,11.74
2023-11-14T09:26:06.749Z,11.71
2023-11-14T09:28:34.117Z,11.64
2023-11-14T09:31:03.339Z,11.74
2023-11-14T09:33:31.163Z,11.59
2023-11-14T09:35:57.707Z,11.77
2023-11-14T09:38:24.521Z,11.77
2023-11-14T09:40:51.715Z,11.73
2023-11-14T09:43:19.162Z,11.52
2023-11-14T09:45:50.215Z,11.71
2023-11-14T09:48:17.160Z,11.65
2023-11-14T09:50:43.903Z,11.75
2023-11-14T09:53:10.943Z,11.75
2023-11-14T09:55:38.076Z,11.71
2023-11-14T09:58:08.322Z,11.65
2023-11-14T10:00:35.204Z,11.74
2023-11-14T10:03:04.770Z,11.51
2023-11-14T10:05:31.737Z,11.77
2023-11-14T10:07:59.300Z,11.80
2023-11-14T10:10:26.168Z,11.79
2023-11-14T10:12:53.237Z,11.63
2023-11-14T10:15:32.867Z,11.74
2023-11-14T10:18:00.461Z,11.77
2023-11-14T10:20:47.520Z,11.77
2023-11-14T10:23:24.442Z,11.75
2023-11-14T10:26:05.345Z,11.78
2023-11-14T10:28:31.962Z,11.79
2023-11-14T10:31:15.250Z,11.68
2023-11-14T10:33:43.952Z,11.52
2023-11-14T10:36:12.226Z,11.52
2023-11-14T10:38:39.050Z,11.66
2023-11-14T10:41:06.272Z,11.52
2023-11-14T10:43:36.282Z,11.45
2023-11-14T10:46:11.075Z,11.21
2023-11-14T10:48:38.065Z,11.21
2023-11-14T10:51:08.094Z,11.03
2023-11-14T10:53:35.157Z,11.12
2023-11-14T10:56:04.101Z,11.04
2023-11-14T10:58:30.836Z,11.11
2023-11-14T11:00:58.441Z,10.96
2023-11-14T11:03:26.320Z,11.14
2023-11-14T11:05:53.145Z,11.19
2023-11-14T11:08:19.864Z,11.37
2023-11-14T11:10:46.627Z,11.51
2023-11-14T11:13:28.068Z,11.64
2023-11-14T11:15:56.691Z,11.69
2023-11-14T11:18:35.288Z,11.73
2023-11-14T11:21:13.235Z,11.74
2023-11-14T11:24:11.733Z,11.72
2023-11-14T11:27:12.448Z,11.66
2023-11-14T11:30:00.776Z,11.67
2023-11-14T11:32:38.564Z,11.68
2023-11-14T11:35:19.343Z,11.61
2023-11-14T11:37:55.459Z,11.51
2023-11-14T11:40:27.367Z,11.48
2023-11-14T11:42:56.418Z,11.47
2023-11-14T11:45:31.988Z,11.36
2023-11-14T11:47:59.296Z,11.11
2023-11-14T11:50:36.614Z,11.05
2023-11-14T11:53:08.356Z,10.98
2023-11-14T11:55:36.294Z,10.83
2023-11-14T11:58:04.808Z,10.85
2023-11-14T12:00:32.146Z,10.91
2023-11-14T12:03:03.850Z,11.01
2023-11-14T12:05:33.289Z,10.96
2023-11-14T12:08:01.496Z,10.97
2023-11-14T12:10:28.470Z,10.89
2023-11-14T12:12:59.088Z,10.97
2023-11-14T12:15:26.905Z,10.96
2023-11-14T12:17:56.477Z,10.95
2023-11-14T12:20:24.681Z,10.89
2023-11-14T12:22:53.912Z,10.82
2023-11-14T12:25:22.327Z,10.81
2023-11-14T12:27:58.575Z,10.78
2023-11-14T12:30:26.909Z,10.73
2023-11-14T12:33:11.773Z,10.69
2023-11-14T12:35:57.232Z,10.64
2023-11-14T12:38:38.157Z,10.39
2023-11-14T12:41:34.499Z,10.38
2023-11-14T12:44:07.916Z,10.29
2023-11-14T12:46:37.199Z,10.18
2023-11-14T12:49:11.323Z,10.16
2023-11-14T12:51:48.048Z,10.13
2023-11-14T12:54:16.518Z,10.02
2023-11-14T12:56:43.144Z,9.97
2023-11-14T12:59:10.021Z,9.98
2023-11-14T13:01:38.230Z,9.70
2023-11-14T13:04:12.654Z,9.85
2023-11-14T13:06:41.900Z,9.65
2023-11-14T13:09:09.196Z,9.82
2023-11-14T13:11:36.347Z,9.82
2023-11-14T13:14:03.926Z,9.90
2023-11-14T13:16:30.834Z,10.05
2023-11-14T13:18:58.026Z,10.06
2023-11-14T13:21:25.764Z,10.12
2023-11-14T13:23:52.574Z,10.13
2023-11-14T13:26:23.980Z,10.18
2023-11-14T13:28:51.618Z,10.18
2023-11-14T13:31:19.527Z,10.18
2023-11-14T13:33:46.228Z,10.24
2023-11-14T13:36:17.344Z,10.28
2023-11-14T13:38:45.703Z,10.35
2023-11-14T13:43:42.673Z,10.56
2023-11-14T13:46:20.268Z,10.67
2023-11-14T13:48:51.688Z,10.78
2023-11-14T13:51:19.569Z,10.82
2023-11-14T13:53:46.150Z,10.87
2023-11-14T13:56:12.818Z,10.85
2023-11-14T13:58:39.483Z,10.88
2023-11-14T14:01:12.878Z,10.87
2023-11-14T14:03:40.352Z,10.87
2023-11-14T14:06:08.563Z,10.70
2023-11-14T14:08:36.459Z,10.94
2023-11-14T14:11:03.639Z,10.96
2023-11-14T14:13:30.207Z,10.98
2023-11-14T14:15:56.723Z,10.97
2023-11-14T14:18:23.856Z,10.97
2023-11-14T14:20:51.924Z,10.96
2023-11-14T14:23:23.201Z,10.88
2023-11-14T14:25:50.351Z,10.87
2023-11-14T14:28:21.622Z,10.83
2023-11-14T14:30:48.376Z,10.74
2023-11-14T14:33:15.000Z,10.73
2023-11-14T14:35:41.579Z,10.67
2023-11-14T14:38:09.724Z,10.61
2023-11-14T14:40:36.410Z,10.58
2023-11-14T14:43:03.977Z,10.42
2023-11-14T14:45:30.714Z,10.37
2023-11-14T14:47:58.222Z,10.29
2023-11-14T14:50:26.927Z,10.24
2023-11-14T14:52:55.119Z,10.21
2023-11-14T14:55:24.130Z,10.12
2023-11-14T14:57:54.622Z,10.07
2023-11-14T15:00:22.815Z,10.11
2023-11-14T15:02:52.928Z,10.05
2023-11-14T15:05:24.251Z,10.00
2023-11-14T15:07:51.221Z,9.88
2023-11-14T15:10:17.913Z,9.87
2023-11-14T15:12:45.266Z,9.79
2023-11-14T15:15:13.392Z,9.72
2023-11-14T15:17:40.107Z,9.77
2023-11-14T15:20:11.863Z,9.78
2023-11-14T15:22:38.522Z,9.78
2023-11-14T15:25:06.405Z,9.73
2023-11-14T15:27:35.055Z,9.67
2023-11-14T15:30:04.064Z,9.68
2023-11-14T15:32:31.877Z,9.60
2023-11-14T15:34:59.406Z,9.76
2023-11-14T15:37:26.393Z,9.68
2023-11-14T15:39:53.059Z,9.72
2023-11-14T15:42:21.195Z,9.77
2023-11-14T15:44:48.867Z,9.79
2023-11-14T15:47:15.757Z,9.73
2023-11-14T15:49:42.398Z,9.70
2023-11-14T15:52:08.939Z,9.63
2023-11-14T15:54:35.529Z,9.61
2023-11-14T15:57:02.431Z,9.64
2023-11-14T15:59:29.219Z,9.65
2023-11-14T16:01:56.721Z,9.62
2023-11-14T16:04:23.383Z,9.64
2023-11-14T16:06:50.015Z,9.65
2023-11-14T16:09:16.545Z,9.61
2023-11-14T16:11:43.264Z,9.78
2023-11-14T16:14:10.133Z,9.83
2023-11-14T16:16:36.730Z,9.91
2023-11-14T16:19:03.663Z,9.93
2023-11-14T16:21:30.395Z,9.95
2023-11-14T16:23:57.999Z,10.05
2023-11-14T16:26:24.832Z,10.08
2023-11-14T16:28:51.427Z,10.12
2023-11-14T16:31:20.261Z,10.16
2023-11-14T16:33:48.749Z,10.19
2023-11-14T16:36:15.419Z,10.10
2023-11-14T16:38:41.948Z,10.21
2023-11-14T16:41:08.498Z,10.23
2023-11-14T16:43:35.344Z,10.22
2023-11-14T16:46:02.012Z,10.02
2023-11-14T16:48:28.666Z,10.22
2023-11-14T16:50:55.823Z,10.19
2023-11-14T16:53:22.490Z,10.21
2023-11-14T16:55:49.202Z,10.17
2023-11-14T16:58:15.730Z,10.13
2023-11-14T17:00:43.389Z,10.13
2023-11-14T17:03:10.208Z,10.13
2023-11-14T17:05:41.423Z,10.17
2023-11-14T17:08:08.367Z,10.13
2023-11-14T17:10:35.167Z,10.09
2023-11-14T17:13:01.835Z,9.89
2023-11-14T17:15:28.341Z,10.11
2023-11-14T17:17:55.204Z,10.08
2023-11-14T17:20:21.940Z,10.09
2023-11-14T17:22:48.609Z,10.12
2023-11-14T17:25:15.432Z,10.17
2023-11-14T17:27:42.145Z,10.20
2023-11-14T17:30:09.024Z,10.23
2023-11-14T17:32:35.721Z,10.26
2023-11-14T17:35:02.418Z,10.21
2023-11-14T17:37:28.998Z,10.15
2023-11-14T17:39:55.596Z,10.18
2023-11-14T17:42:22.322Z,10.14
2023-11-14T17:44:49.523Z,10.14
2023-11-14T17:47:19.367Z,10.15
2023-11-14T17:49:46.144Z,10.04
2023-11-14T17:52:12.867Z,10.17
2023-11-14T17:54:41.397Z,10.17
2023-11-14T17:57:10.698Z,10.19
2023-11-14T17:59:37.738Z,10.04
2023-11-14T18:02:04.741Z,10.19
2023-11-14T18:04:31.596Z,10.11
2023-11-14T18:06:58.326Z,10.21
2023-11-14T18:09:28.887Z,10.23
2023-11-14T18:11:56.147Z,10.26
2023-11-14T18:14:23.687Z,10.15
2023-11-14T18:16:50.332Z,10.23
2023-11-14T18:19:17.086Z,10.26
2023-11-14T18:21:45.769Z,10.25
2023-11-14T18:24:12.601Z,10.24
2023-11-14T18:26:39.508Z,10.23
2023-11-14T18:31:41.310Z,10.22
2023-11-14T18:34:07.847Z,10.08
2023-11-14T18:39:23.752Z,10.00
2023-11-14T18:41:50.368Z,9.88
2023-11-14T18:44:16.870Z,9.79
2023-11-14T18:46:43.499Z,9.73
2023-11-14T18:49:10.125Z,9.63
2023-11-14T18:51:36.653Z,9.52
2023-11-14T18:54:03.354Z,9.38
2023-11-14T18:56:30.671Z,9.43
2023-11-14T18:58:57.467Z,9.31
2023-11-14T19:01:24.018Z,9.35
2023-11-14T19:03:51.614Z,9.32
2023-11-14T19:06:18.443Z,9.29
2023-11-14T19:08:45.515Z,9.23
2023-11-14T19:11:12.167Z,9.23
2023-11-14T19:13:38.789Z,9.23
2023-11-14T19:16:05.808Z,9.24
2023-11-14T19:18:33.378Z,9.18
2023-11-14T19:21:36.024Z,9.23
2023-11-14T19:23:46.836Z,9.20
2023-11-14T19:26:13.558Z,9.16
2023-11-14T19:28:43.633Z,9.19
2023-11-14T19:31:10.390Z,9.16
2023-11-14T19:33:36.976Z,9.11
2023-11-14T19:36:03.972Z,9.07
2023-11-14T19:38:32.001Z,9.06
2023-11-14T19:40:59.478Z,9.03
2023-11-14T19:43:26.164Z,8.74
2023-11-14T19:45:54.231Z,8.98
2023-11-14T19:48:21.592Z,8.89
2023-11-14T19:50:48.725Z,8.92
2023-11-14T19:53:15.929Z,8.91
2023-11-14T19:55:42.987Z,8.94
2023-11-14T19:58:09.785Z,8.95
2023-11-14T20:00:37.298Z,8.95
2023-11-14T20:03:04.911Z,8.74
2023-11-14T20:05:33.400Z,8.89
2023-11-14T20:08:00.068Z,8.88
2023-11-14T20:10:26.680Z,8.81
2023-11-14T20:12:53.264Z,8.84
2023-11-14T20:15:19.921Z,8.83
2023-11-14T20:17:46.704Z,8.77
2023-11-14T20:20:13.779Z,8.67
2023-11-14T20:22:41.303Z,8.74
2023-11-14T20:25:08.466Z,8.77
2023-11-14T20:27:35.152Z,8.80
2023-11-14T20:30:05.409Z,8.80
2023-11-14T20:32:32.225Z,8.79
2023-11-14T20:34:58.830Z,8.78
2023-11-14T20:37:25.394Z,8.77
2023-11-14T20:39:52.871Z,8.74
2023-11-14T20:42:23.189Z,8.76
2023-11-14T20:44:50.308Z,8.79
2023-11-14T20:47:16.908Z,8.79
2023-11-14T20:49:43.608Z,8.80
2023-11-14T20:52:10.765Z,8.79
2023-11-14T20:54:37.363Z,8.80
2023-11-14T20:57:04.046Z,8.84
2023-11-14T20:59:31.598Z,8.84
2023-11-14T21:01:58.626Z,8.87
2023-11-14T21:04:25.428Z,8.73
2023-11-14T21:06:54.820Z,8.94
2023-11-14T21:09:21.348Z,8.93
2023-11-14T21:11:49.292Z,8.88
2023-11-14T21:14:17.928Z,8.82
2023-11-14T21:16:45.650Z,8.56
2023-11-14T21:19:12.853Z,8.83
2023-11-14T21:21:46.390Z,8.84
2023-11-14T21:24:12.973Z,8.78
2023-11-14T21:26:40.615Z,8.85
2023-11-14T21:29:07.664Z,8.84
2023-11-14T21:31:42.356Z,8.69
2023-11-14T21:34:09.901Z,8.90
2023-11-14T21:36:36.530Z,8.87
2023-11-14T21:39:03.501Z,8.88
2023-11-14T21:41:30.361Z,8.88
2023-11-14T21:43:59.319Z,8.88
2023-11-14T21:46:26.651Z,8.95
2023-11-14T21:48:53.361Z,8.98
2023-11-14T21:51:20.568Z,9.00
2023-11-14T21:53:47.247Z,9.05
2023-11-14T21:56:14.736Z,9.07
2023-11-14T21:58:42.479Z,9.09
2023-11-14T22:01:09.149Z,9.10
2023-11-14T22:03:36.399Z,9.09
2023-11-14T22:06:03.304Z,9.17
2023-11-14T22:08:29.986Z,9.22
2023-11-14T22:10:56.663Z,9.24
2023-11-14T22:13:23.253Z,9.26
2023-11-14T22:15:50.327Z,9.27
2023-11-14T22:18:18.204Z,9.23
2023-11-14T22:20:44.971Z,9.30
2023-11-14T22:23:11.595Z,9.30
2023-11-14T22:25:38.118Z,9.25
2023-11-14T22:28:04.683Z,9.24
2023-11-14T22:30:31.295Z,9.24
2023-11-14T22:32:57.913Z,9.26
2023-11-14T22:35:25.473Z,9.26
2023-11-14T22:37:52.072Z,9.25
2023-11-14T22:40:19.336Z,9.25
2023-11-14T22:42:45.968Z,9.26
2023-11-14T22:45:13.471Z,9.26
2023-11-14T22:47:40.296Z,9.13
2023-11-14T22:50:08.671Z,9.29
2023-11-14T22:52:35.457Z,9.34
2023-11-14T22:55:04.350Z,9.37
2023-11-14T22:57:31.784Z,9.21
2023-11-14T22:59:58.327Z,9.40
2023-11-14T23:02:25.112Z,9.38
2023-11-14T23:04:51.932Z,9.40
2023-11-14T23:07:18.686Z,9.46
2023-11-14T23:09:45.690Z,9.43
2023-11-14T23:12:12.544Z,9.45
2023-11-14T23:14:39.254Z,9.48
2023-11-14T23:17:06.111Z,9.49
2023-11-14T23:19:32.775Z,9.48
2023-11-14T23:22:00.212Z,9.51
2023-11-14T23:24:26.892Z,9.48
2023-11-14T23:26:53.530Z,9.51
2023-11-14T23:29:20.638Z,9.52
2023-11-14T23:31:47.341Z,9.23
2023-11-14T23:34:13.853Z,9.51
2023-11-14T23:36:40.454Z,9.54
2023-11-14T23:39:07.578Z,9.55
2023-11-14T23:41:35.007Z,9.56
2023-11-14T23:44:01.857Z,9.57
2023-11-14T23:46:28.813Z,9.58
2023-11-14T23:48:55.711Z,9.43
2023-11-14T23:51:23.123Z,9.57
2023-11-14T23:53:49.905Z,9.58
2023-11-14T23:56:16.482Z,9.56
2023-11-14T23:58:42.997Z,9.59
